createdAt,value
2022-08-12T00:02:03.552Z,17.90
2022-08-12T00:07:23.167Z,17.80
2022-08-12T00:12:43.575Z,17.70
2022-08-12T00:18:03.944Z,17.60
2022-08-12T00:23:24.533Z,17.60
2022-08-12T00:28:45.009Z,17.60
2022-08-12T00:34:05.673Z,17.60
2022-08-12T00:39:26.048Z,17.50
2022-08-12T00:44:28.049Z,17.40
2022-08-12T00:49:31.116Z,17.40
2022-08-12T00:54:37.964Z,17.30
2022-08-12T01:00:01.055Z,17.40
2022-08-12T01:05:23.111Z,17.30
2022-08-12T01:10:45.488Z,17.30
2022-08-12T01:15:50.392Z,17.30
2022-08-12T01:20:52.310Z,17.30
2022-08-12T01:25:56.583Z,17.20
2022-08-12T01:31:02.295Z,17.20
2022-08-12T01:36:07.914Z,17.10
2022-08-12T01:41:11.675Z,17.00
2022-08-12T01:46:16.908Z,17.00
2022-08-12T01:52:21.625Z,16.90
2022-08-12T01:57:11.099Z,16.90
2022-08-12T02:02:16.829Z,16.80
2022-08-12T02:07:52.717Z,16.70
2022-08-12T02:13:13.042Z,16.70
2022-08-12T02:18:26.448Z,16.50
2022-08-12T02:23:28.979Z,16.40
2022-08-12T02:28:31.052Z,16.30
2022-08-12T02:33:33.201Z,16.30
2022-08-12T02:38:36.202Z,16.20
2022-08-12T02:43:59.631Z,16.20
2022-08-12T02:49:19.810Z,16.20
2022-08-12T02:54:22.813Z,16.10
2022-08-12T02:59:27.128Z,16.00
2022-08-12T03:04:47.591Z,15.90
2022-08-12T03:10:06.954Z,15.90
2022-08-12T03:15:13.124Z,15.80
2022-08-12T03:20:17.189Z,15.70
2022-08-12T03:25:25.155Z,15.60
2022-08-12T03:30:33.287Z,15.60
2022-08-12T03:35:41.307Z,15.50
2022-08-12T03:41:12.400Z,15.50
2022-08-12T03:46:37.288Z,15.50
2022-08-12T03:51:58.341Z,15.60
2022-08-12T03:57:18.826Z,15.50
2022-08-12T04:02:21.052Z,15.50
2022-08-12T04:07:23.012Z,15.50
2022-08-12T04:12:45.345Z,15.50
2022-08-12T04:18:06.430Z,15.40
2022-08-12T04:23:16.772Z,15.40
2022-08-12T04:28:27.809Z,15.40
2022-08-12T04:33:30.982Z,15.30
2022-08-12T04:38:33.652Z,15.40
2022-08-12T04:43:53.889Z,15.30
2022-08-12T04:48:58.114Z,15.40
2022-08-12T04:54:02.768Z,15.40
2022-08-12T04:59:05.473Z,15.40
2022-08-12T05:04:08.307Z,15.50
2022-08-12T05:09:13.162Z,15.50
2022-08-12T05:14:16.054Z,15.60
2022-08-12T05:19:22.382Z,15.60
2022-08-12T05:24:24.775Z,15.70
2022-08-12T05:30:06.334Z,15.80
2022-08-12T05:34:51.752Z,16.10
2022-08-12T05:39:53.826Z,16.40
2022-08-12T05:44:55.786Z,16.90
2022-08-12T05:49:59.129Z,17.50
2022-08-12T05:55:02.953Z,18.10
2022-08-12T06:00:05.868Z,18.80
2022-08-12T06:05:10.528Z,19.30
2022-08-12T06:10:12.471Z,19.80
2022-08-12T06:15:14.332Z,20.30
2022-08-12T06:20:26.501Z,20.80
2022-08-12T06:25:34.473Z,21.20
2022-08-12T06:30:39.435Z,21.60
2022-08-12T06:35:49.295Z,22.00
2022-08-12T06:41:18.129Z,22.00
2022-08-12T06:46:22.130Z,22.50
2022-08-12T06:51:28.568Z,22.80
2022-08-12T06:57:01.989Z,23.10
2022-08-12T07:01:52.544Z,23.60
2022-08-12T07:06:55.854Z,23.80
2022-08-12T07:11:57.705Z,24.20
2022-08-12T07:17:02.376Z,24.40
2022-08-12T07:22:06.478Z,24.80
2022-08-12T07:27:08.444Z,25.20
2022-08-12T07:32:10.313Z,25.40
2022-08-12T07:37:13.344Z,25.40
2022-08-12T07:42:15.249Z,25.80
2022-08-12T07:47:19.665Z,26.20
2022-08-12T07:52:21.607Z,26.80
2022-08-12T07:57:23.500Z,27.20
2022-08-12T08:02:26.713Z,27.30
2022-08-12T08:07:30.414Z,27.00
2022-08-12T08:12:51.535Z,27.20
2022-08-12T08:17:57.904Z,27.60
2022-08-12T08:23:05.627Z,28.10
2022-08-12T08:28:11.631Z,28.40
2022-08-12T08:34:04.378Z,28.70
2022-08-12T08:38:37.402Z,28.90
2022-08-12T08:43:44.034Z,29.30
2022-08-12T08:48:46.338Z,29.50
2022-08-12T08:53:52.809Z,30.00
2022-08-12T08:58:55.102Z,30.10
2022-08-12T09:05:08.691Z,30.30
2022-08-12T09:09:18.970Z,30.60
2022-08-12T09:14:29.186Z,30.70
2022-08-12T09:19:31.527Z,30.50
2022-08-12T09:24:36.290Z,30.70
2022-08-12T09:30:11.012Z,30.70
2022-08-12T09:35:00.598Z,31.10
2022-08-12T09:40:57.770Z,31.20
2022-08-12T09:46:19.597Z,31.20
2022-08-12T09:50:52.133Z,30.50
2022-08-12T09:56:39.902Z,30.50
2022-08-12T10:01:23.418Z,30.50
2022-08-12T10:06:36.033Z,30.40
2022-08-12T10:12:10.148Z,30.60
2022-08-12T10:17:13.607Z,31.00
2022-08-12T10:22:17.067Z,31.20
2022-08-12T10:28:24.942Z,31.70
2022-08-12T10:33:31.027Z,31.70
2022-08-12T10:38:41.198Z,31.60
2022-08-12T10:43:54.364Z,31.80
2022-08-12T10:49:06.674Z,31.80
2022-08-12T10:54:22.456Z,31.80
2022-08-12T11:00:29.596Z,32.00
2022-08-12T11:04:52.533Z,31.90
2022-08-12T11:10:00.223Z,30.90
2022-08-12T11:15:19.395Z,30.80
2022-08-12T11:20:30.694Z,30.90
2022-08-12T11:25:56.743Z,31.40
2022-08-12T11:32:01.958Z,31.80
2022-08-12T11:37:05.792Z,32.10
2022-08-12T11:42:32.404Z,31.50
2022-08-12T11:47:49.268Z,30.30
2022-08-12T11:52:55.931Z,29.40
2022-08-12T11:58:49.429Z,29.60
2022-08-12T12:03:23.011Z,30.60
2022-08-12T12:08:38.852Z,30.40
2022-08-12T12:14:06.820Z,30.20
2022-08-12T12:19:05.979Z,30.00
2022-08-12T12:24:07.975Z,29.60
2022-08-12T12:30:13.615Z,29.70
2022-08-12T12:34:33.894Z,30.00
2022-08-12T12:39:54.627Z,30.60
2022-08-12T12:44:57.020Z,30.80
2022-08-12T12:49:58.990Z,30.90
2022-08-12T12:55:01.744Z,31.30
2022-08-12T13:00:17.546Z,31.30
2022-08-12T13:05:20.725Z,31.20
2022-08-12T13:10:36.440Z,30.90
2022-08-12T13:15:45.258Z,30.60
2022-08-12T13:20:49.701Z,30.80
2022-08-12T13:26:01.824Z,30.90
2022-08-12T13:31:03.683Z,31.00
2022-08-12T13:36:11.113Z,30.80
2022-08-12T13:41:35.781Z,30.60
2022-08-12T13:46:38.893Z,30.40
2022-08-12T13:51:42.079Z,30.30
2022-08-12T13:56:50.021Z,30.10
2022-08-12T14:01:54.404Z,30.20
2022-08-12T14:07:05.623Z,30.10
2022-08-12T14:12:07.485Z,30.40
2022-08-12T14:17:19.872Z,30.40
2022-08-12T14:22:26.012Z,30.40
2022-08-12T14:28:03.301Z,30.10
2022-08-12T14:32:51.163Z,29.70
2022-08-12T14:37:56.137Z,29.30
2022-08-12T14:43:02.696Z,28.90
2022-08-12T14:48:08.470Z,28.70
2022-08-12T14:55:10.835Z,28.60
2022-08-12T14:58:35.269Z,28.50
2022-08-12T15:03:57.905Z,28.60
2022-08-12T15:09:00.260Z,28.70
2022-08-12T15:14:06.167Z,28.90
2022-08-12T15:20:10.925Z,28.90
2022-08-12T15:24:33.425Z,29.00
2022-08-12T15:29:36.600Z,28.90
2022-08-12T15:34:38.866Z,28.80
2022-08-12T15:39:40.942Z,28.70
2022-08-12T15:45:02.856Z,28.40
2022-08-12T15:50:10.632Z,28.20
2022-08-12T15:55:26.096Z,28.10
2022-08-12T16:00:40.229Z,27.90
2022-08-12T16:06:12.834Z,27.90
2022-08-12T16:11:14.528Z,27.80
2022-08-12T16:16:23.370Z,27.70
2022-08-12T16:21:51.501Z,27.60
2022-08-12T16:26:51.071Z,27.50
2022-08-12T16:31:56.199Z,27.20
2022-08-12T16:37:02.074Z,26.90
2022-08-12T16:42:05.448Z,26.60
2022-08-12T16:47:07.603Z,26.40
2022-08-12T16:52:12.701Z,26.30
2022-08-12T16:57:14.784Z,26.20
2022-08-12T17:02:33.365Z,26.10
2022-08-12T17:07:43.148Z,26.00
2022-08-12T17:12:46.170Z,25.90
2022-08-12T17:17:49.896Z,25.80
2022-08-12T17:23:15.428Z,25.70
2022-08-12T17:28:19.787Z,25.50
2022-08-12T17:33:24.657Z,25.30
2022-08-12T17:38:27.156Z,25.20
2022-08-12T17:43:56.008Z,25.00
2022-08-12T17:48:59.391Z,24.80
2022-08-12T17:54:10.766Z,24.60
2022-08-12T17:59:47.322Z,24.40
2022-08-12T18:05:09.558Z,24.10
2022-08-12T18:10:07.265Z,23.90
2022-08-12T18:15:26.256Z,23.70
2022-08-12T18:20:39.585Z,23.60
2022-08-12T18:26:16.570Z,23.50
2022-08-12T18:31:43.972Z,23.30
2022-08-12T18:36:51.961Z,23.20
2022-08-12T18:41:58.585Z,23.00
2022-08-12T18:47:02.134Z,22.80
2022-08-12T18:52:05.487Z,22.60
2022-08-12T18:57:16.381Z,22.40
2022-08-12T19:02:23.292Z,22.20
2022-08-12T19:07:29.824Z,22.10
2022-08-12T19:13:08.306Z,22.00
2022-08-12T19:18:12.436Z,21.90
2022-08-12T19:23:16.761Z,21.80
2022-08-12T19:28:30.161Z,21.70
2022-08-12T19:33:37.472Z,21.70
2022-08-12T19:38:46.781Z,21.70
2022-08-12T19:44:16.771Z,21.60
2022-08-12T19:49:22.438Z,21.60
2022-08-12T19:54:27.120Z,21.50
2022-08-12T19:59:43.000Z,21.40
2022-08-12T20:06:03.349Z,21.30
2022-08-12T20:10:22.003Z,21.30
2022-08-12T20:15:26.250Z,21.20
2022-08-12T20:20:45.121Z,21.20
2022-08-12T20:25:52.746Z,21.20
2022-08-12T20:31:01.709Z,21.20
2022-08-12T20:36:12.794Z,21.20
2022-08-12T20:41:26.844Z,21.20
2022-08-12T20:46:34.150Z,21.20
2022-08-12T20:51:51.117Z,21.10
2022-08-12T20:56:57.995Z,21.10
2022-08-12T21:02:04.983Z,21.00
2022-08-12T21:07:10.435Z,20.90
2022-08-12T21:12:31.368Z,20.90
2022-08-12T21:18:00.701Z,20.90
2022-08-12T21:23:05.639Z,20.90
2022-08-12T21:28:08.180Z,20.80
2022-08-12T21:33:14.615Z,20.80
2022-08-12T21:38:18.812Z,20.80
2022-08-12T21:43:21.150Z,20.70
2022-08-12T21:48:25.355Z,20.70
2022-08-12T21:54:05.801Z,20.60
2022-08-12T21:58:49.250Z,20.60
2022-08-12T22:04:12.488Z,20.50
2022-08-12T22:09:15.976Z,20.40
2022-08-12T22:14:21.524Z,20.40
2022-08-12T22:19:27.070Z,20.40
2022-08-12T22:24:30.592Z,20.30
2022-08-12T22:29:51.632Z,20.30
2022-08-12T22:35:22.427Z,20.10
2022-08-12T22:40:26.205Z,20.10
2022-08-12T22:45:56.034Z,20.00
2022-08-12T22:50:59.708Z,19.80
2022-08-12T22:56:06.149Z,19.70
2022-08-12T23:01:11.233Z,19.70
2022-08-12T23:06:16.732Z,19.60
2022-08-12T23:11:23.928Z,19.60
2022-08-12T23:16:33.927Z,19.50
2022-08-12T23:21:40.389Z,19.50
2022-08-12T23:27:18.785Z,19.40
2022-08-12T23:32:35.641Z,19.40
2022-08-12T23:37:47.207Z,19.40
2022-08-12T23:42:56.898Z,19.40
2022-08-12T23:48:00.295Z,19.40
2022-08-12T23:53:22.325Z,19.30
2022-08-12T23:58:28.249Z,19.30
